createdAt,value
2023-06-10T00:01:14.521Z,99.90
2023-06-10T00:03:44.672Z,32.20
2023-06-10T00:06:12.927Z,1.00
2023-06-10T00:08:41.211Z,99.90
2023-06-10T00:11:09.352Z,99.90
2023-06-10T00:13:39.349Z,99.90
2023-06-10T00:16:07.572Z,99.90
2023-06-10T00:18:38.095Z,99.90
2023-06-10T00:21:06.873Z,99.90
2023-06-10T00:23:38.665Z,1.00
2023-06-10T00:26:07.403Z,44.80
2023-06-10T00:28:35.689Z,1.00
2023-06-10T00:31:06.266Z,22.80
2023-06-10T00:33:34.412Z,99.90
2023-06-10T00:36:02.617Z,33.70
2023-06-10T00:38:30.861Z,1.00
2023-06-10T00:40:58.996Z,1.00
2023-06-10T00:43:27.138Z,16.70
2023-06-10T00:45:55.284Z,2.20
2023-06-10T00:48:24.844Z,99.90
2023-06-10T00:50:53.041Z,99.90
2023-06-10T00:53:21.978Z,99.90
2023-06-10T00:55:50.064Z,99.90
2023-06-10T00:58:18.196Z,37.80
2023-06-10T01:00:47.943Z,99.90
2023-06-10T01:03:18.597Z,99.90
2023-06-10T01:05:50.461Z,99.90
2023-06-10T01:08:22.251Z,99.90
2023-06-10T01:10:52.493Z,1.00
2023-06-10T01:13:21.682Z,99.90
2023-06-10T01:15:49.924Z,99.90
2023-06-10T01:18:18.315Z,1.00
2023-06-10T01:20:51.475Z,1.00
2023-06-10T01:23:21.536Z,1.00
2023-06-10T01:25:52.252Z,1.00
2023-06-10T01:28:22.541Z,1.00
2023-06-10T01:30:54.305Z,99.90
2023-06-10T01:33:26.514Z,99.90
2023-06-10T01:35:54.858Z,99.90
2023-06-10T01:38:24.372Z,1.00
2023-06-10T01:40:52.510Z,1.00
2023-06-10T01:43:20.743Z,1.00
2023-06-10T01:45:48.899Z,1.00
2023-06-10T01:48:17.091Z,1.00
2023-06-10T01:50:45.387Z,1.00
2023-06-10T01:53:13.509Z,1.00
2023-06-10T01:55:43.066Z,1.00
2023-06-10T01:58:11.277Z,99.90
2023-06-10T02:00:39.481Z,13.40
2023-06-10T02:03:07.704Z,1.00
2023-06-10T02:05:35.950Z,99.90
2023-06-10T02:08:04.041Z,98.70
2023-06-10T02:10:32.176Z,1.00
2023-06-10T02:13:01.763Z,1.00
2023-06-10T02:15:29.873Z,1.00
2023-06-10T02:17:59.164Z,99.90
2023-06-10T02:20:27.297Z,99.90
2023-06-10T02:22:55.463Z,1.00
2023-06-10T02:25:23.549Z,81.10
2023-06-10T02:27:51.696Z,99.90
2023-06-10T02:30:21.307Z,45.20
2023-06-10T02:32:49.925Z,1.00
2023-06-10T02:35:18.386Z,1.00
2023-06-10T02:37:46.507Z,1.00
2023-06-10T02:40:14.648Z,1.00
2023-06-10T02:42:42.823Z,1.00
2023-06-10T02:45:11.638Z,1.00
2023-06-10T02:47:41.886Z,19.30
2023-06-10T02:50:10.747Z,1.00
2023-06-10T02:52:38.923Z,1.00
2023-06-10T02:55:08.044Z,1.00
2023-06-10T02:57:36.358Z,1.00
2023-06-10T03:00:10.400Z,99.90
2023-06-10T03:02:39.906Z,99.90
2023-06-10T03:05:11.921Z,56.60
2023-06-10T03:07:40.386Z,99.90
2023-06-10T03:10:09.686Z,99.90
2023-06-10T03:12:37.786Z,89.30
2023-06-10T03:15:07.178Z,99.90
2023-06-10T03:17:35.790Z,99.90
2023-06-10T03:20:04.490Z,99.90
2023-06-10T03:22:33.972Z,1.00
2023-06-10T03:25:02.126Z,1.00
2023-06-10T03:27:30.576Z,1.00
2023-06-10T03:29:58.781Z,1.00
2023-06-10T03:32:27.031Z,1.00
2023-06-10T03:34:58.306Z,99.90
2023-06-10T03:37:26.595Z,99.90
2023-06-10T03:39:56.148Z,99.90
2023-06-10T03:42:24.358Z,99.90
2023-06-10T03:44:52.537Z,99.90
2023-06-10T03:47:20.661Z,99.90
2023-06-10T03:49:48.882Z,54.30
2023-06-10T03:52:17.008Z,99.90
2023-06-10T03:54:45.116Z,99.90
2023-06-10T03:57:14.648Z,99.90
2023-06-10T03:59:42.857Z,99.90
2023-06-10T04:02:11.237Z,99.90
2023-06-10T04:04:39.751Z,99.90
2023-06-10T04:07:09.301Z,99.90
2023-06-10T04:09:37.871Z,99.90
2023-06-10T04:12:07.449Z,99.90
2023-06-10T04:14:37.916Z,99.90
2023-06-10T04:17:08.108Z,99.90
2023-06-10T04:19:36.436Z,99.90
2023-06-10T04:22:05.035Z,99.90
2023-06-10T04:24:33.363Z,99.90
2023-06-10T04:27:01.629Z,99.90
2023-06-10T04:29:29.785Z,40.70
2023-06-10T04:31:59.908Z,1.00
2023-06-10T04:34:28.503Z,1.00
2023-06-10T04:36:56.647Z,1.00
2023-06-10T04:39:25.331Z,1.00
2023-06-10T04:41:53.529Z,99.90
2023-06-10T04:44:22.409Z,99.90
2023-06-10T04:46:50.586Z,99.90
2023-06-10T04:49:20.173Z,99.90
2023-06-10T04:51:48.287Z,19.30
2023-06-10T04:54:17.078Z,92.70
2023-06-10T04:56:45.429Z,1.00
2023-06-10T04:59:15.609Z,1.00
2023-06-10T05:01:43.816Z,99.90
2023-06-10T05:04:12.029Z,99.90
2023-06-10T05:06:41.594Z,97.40
2023-06-10T05:09:09.719Z,99.90
2023-06-10T05:11:37.821Z,1.00
2023-06-10T05:14:06.411Z,1.00
2023-06-10T05:16:34.641Z,1.00
2023-06-10T05:19:03.832Z,99.90
2023-06-10T05:21:33.163Z,99.90
2023-06-10T05:24:03.386Z,93.00
2023-06-10T05:26:32.923Z,7.30
2023-06-10T05:29:01.099Z,21.20
2023-06-10T05:31:29.251Z,1.00
2023-06-10T05:33:57.592Z,16.60
2023-06-10T05:36:26.556Z,99.90
2023-06-10T05:38:54.712Z,99.90
2023-06-10T05:41:24.329Z,99.90
2023-06-10T05:43:52.427Z,99.90
2023-06-10T05:46:20.652Z,99.90
2023-06-10T05:48:48.837Z,99.90
2023-06-10T05:51:16.978Z,99.90
2023-06-10T05:53:47.421Z,14.40
2023-06-10T05:56:15.961Z,56.80
2023-06-10T05:58:45.524Z,99.90
2023-06-10T06:01:13.700Z,99.90
2023-06-10T06:03:42.068Z,99.90
2023-06-10T06:06:10.331Z,1.00
2023-06-10T06:08:38.530Z,1.00
2023-06-10T06:11:06.670Z,1.00
2023-06-10T06:13:34.819Z,99.90
2023-06-10T06:16:04.503Z,1.00
2023-06-10T06:18:32.648Z,99.90
2023-06-10T06:21:00.816Z,1.00
2023-06-10T06:23:28.968Z,1.00
2023-06-10T06:25:57.099Z,1.00
2023-06-10T06:28:30.205Z,99.90
2023-06-10T06:30:58.584Z,1.00
2023-06-10T06:33:28.542Z,1.00
2023-06-10T06:35:56.630Z,1.00
2023-06-10T06:38:24.839Z,1.00
2023-06-10T06:40:53.058Z,71.00
2023-06-10T06:43:21.248Z,99.90
2023-06-10T06:45:49.431Z,99.90
2023-06-10T06:48:17.682Z,99.90
2023-06-10T06:50:47.840Z,1.00
2023-06-10T06:53:16.080Z,1.00
2023-06-10T06:55:44.195Z,99.90
2023-06-10T06:58:12.360Z,1.00
2023-06-10T07:00:40.540Z,99.90
2023-06-10T07:03:08.740Z,1.00
2023-06-10T07:05:37.027Z,1.00
2023-06-10T07:08:06.969Z,1.00
2023-06-10T07:10:35.170Z,1.00
2023-06-10T07:13:04.332Z,1.00
2023-06-10T07:15:33.914Z,99.90
2023-06-10T07:18:02.178Z,1.00
2023-06-10T07:20:30.348Z,53.50
2023-06-10T07:22:58.554Z,99.90
2023-06-10T07:25:28.081Z,99.90
2023-06-10T07:27:56.224Z,99.90
2023-06-10T07:30:24.450Z,1.00
2023-06-10T07:32:53.567Z,99.90
2023-06-10T07:35:22.077Z,1.00
2023-06-10T07:37:50.224Z,99.90
2023-06-10T07:40:18.504Z,1.00
2023-06-10T07:42:48.002Z,1.00
2023-06-10T07:45:16.168Z,7.50
2023-06-10T07:47:45.055Z,99.90
2023-06-10T07:50:13.298Z,1.00
2023-06-10T07:52:41.436Z,1.00
2023-06-10T07:55:10.156Z,1.00
2023-06-10T07:57:39.738Z,99.90
2023-06-10T08:00:11.277Z,29.50
2023-06-10T08:02:39.854Z,1.00
2023-06-10T08:05:09.097Z,1.00
2023-06-10T08:07:37.528Z,1.00
2023-06-10T08:10:06.468Z,1.00
2023-06-10T08:12:34.733Z,99.90
2023-06-10T08:15:02.941Z,99.90
2023-06-10T08:17:32.781Z,1.00
2023-06-10T08:20:01.028Z,99.90
2023-06-10T08:22:30.525Z,99.90
2023-06-10T08:24:58.771Z,69.40
2023-06-10T08:27:27.185Z,99.90
2023-06-10T08:29:55.289Z,99.90
2023-06-10T08:32:23.558Z,1.00
2023-06-10T08:34:53.485Z,1.00
2023-06-10T08:37:21.656Z,91.60
2023-06-10T08:39:49.795Z,99.90
2023-06-10T08:42:21.977Z,99.90
2023-06-10T08:44:50.186Z,1.00
2023-06-10T08:47:19.090Z,1.00
2023-06-10T08:49:48.486Z,99.90
2023-06-10T08:52:18.986Z,99.90
2023-06-10T08:54:56.602Z,99.90
2023-06-10T08:57:24.755Z,99.90
2023-06-10T08:59:52.973Z,99.90
2023-06-10T09:02:21.650Z,99.90
2023-06-10T09:04:50.355Z,1.00
2023-06-10T09:07:19.888Z,99.90
2023-06-10T09:09:48.069Z,99.90
2023-06-10T09:12:16.485Z,1.00
2023-06-10T09:14:44.660Z,99.90
2023-06-10T09:17:12.931Z,99.90
2023-06-10T09:19:41.073Z,1.00
2023-06-10T09:22:09.232Z,1.00
2023-06-10T09:24:38.742Z,1.00
2023-06-10T09:27:07.554Z,1.00
2023-06-10T09:29:50.284Z,1.00
2023-06-10T09:32:19.407Z,1.00
2023-06-10T09:34:48.048Z,1.00
2023-06-10T09:37:16.871Z,99.90
2023-06-10T09:39:46.398Z,1.00
2023-06-10T09:42:19.651Z,99.90
2023-06-10T09:44:52.189Z,1.00
2023-06-10T09:47:23.655Z,1.00
2023-06-10T09:49:54.523Z,1.00
2023-06-10T09:52:25.098Z,99.90
2023-06-10T09:54:55.011Z,99.90
2023-06-10T09:57:23.737Z,1.00
2023-06-10T09:59:55.129Z,99.90
2023-06-10T10:02:23.285Z,99.90
2023-06-10T10:04:51.600Z,99.90
2023-06-10T10:07:19.911Z,99.90
2023-06-10T10:09:48.026Z,99.90
2023-06-10T10:12:18.301Z,99.90
2023-06-10T10:14:48.729Z,99.90
2023-06-10T10:17:17.613Z,99.90
2023-06-10T10:19:49.397Z,99.90
2023-06-10T10:22:20.720Z,99.90
2023-06-10T10:24:51.478Z,99.90
2023-06-10T10:27:24.938Z,99.90
2023-06-10T10:29:54.493Z,99.90
2023-06-10T10:32:23.832Z,99.90
2023-06-10T10:34:54.083Z,99.90
2023-06-10T10:37:22.535Z,99.90
2023-06-10T10:39:50.830Z,99.90
2023-06-10T10:42:19.024Z,99.90
2023-06-10T10:44:48.551Z,99.90
2023-06-10T10:47:16.870Z,99.90
2023-06-10T10:49:45.898Z,99.90
2023-06-10T10:52:14.323Z,99.90
2023-06-10T10:54:46.204Z,99.90
2023-06-10T10:57:16.019Z,99.90
2023-06-10T11:00:06.169Z,99.90
2023-06-10T11:05:09.439Z,99.90
2023-06-10T11:07:38.464Z,99.90
2023-06-10T11:10:09.248Z,99.90
2023-06-10T11:12:53.629Z,99.90
2023-06-10T11:15:24.437Z,99.90
2023-06-10T11:18:23.548Z,99.90
2023-06-10T11:21:02.012Z,99.90
2023-06-10T11:23:43.683Z,99.90
2023-06-10T11:26:33.765Z,99.90
2023-06-10T11:29:10.242Z,99.90
2023-06-10T11:31:43.953Z,99.90
2023-06-10T11:34:12.159Z,99.90
2023-06-10T11:36:43.666Z,99.90
2023-06-10T11:39:12.094Z,99.90
2023-06-10T11:41:41.150Z,99.90
2023-06-10T11:44:12.563Z,99.90
2023-06-10T11:46:43.828Z,99.90
2023-06-10T11:49:12.098Z,99.90
2023-06-10T11:51:41.681Z,99.90
2023-06-10T11:54:11.060Z,99.90
2023-06-10T11:56:39.253Z,99.90
2023-06-10T11:59:08.806Z,99.90
2023-06-10T12:01:41.381Z,99.90
2023-06-10T12:04:13.889Z,99.90
2023-06-10T12:06:43.161Z,99.90
2023-06-10T12:09:25.353Z,99.90
2023-06-10T12:11:57.722Z,99.90
2023-06-10T12:14:56.086Z,99.90
2023-06-10T12:17:25.542Z,99.90
2023-06-10T12:19:55.078Z,99.90
2023-06-10T12:22:24.705Z,99.90
2023-06-10T12:25:03.890Z,99.90
2023-06-10T12:27:32.890Z,99.90
2023-06-10T12:32:40.429Z,99.90
2023-06-10T12:35:11.103Z,99.90
2023-06-10T12:37:42.528Z,99.90
2023-06-10T12:40:12.694Z,99.90
2023-06-10T12:42:42.958Z,99.90
2023-06-10T12:45:13.465Z,99.90
2023-06-10T12:47:42.852Z,99.90
2023-06-10T12:50:14.090Z,99.90
2023-06-10T12:52:43.532Z,99.90
2023-06-10T12:55:12.193Z,99.90
2023-06-10T12:57:49.588Z,99.90
2023-06-10T13:00:19.151Z,99.90
2023-06-10T13:02:47.347Z,98.90
2023-06-10T13:05:17.942Z,97.40
2023-06-10T13:07:46.874Z,96.20
2023-06-10T13:10:15.807Z,93.30
2023-06-10T13:12:48.013Z,92.80
2023-06-10T13:15:17.177Z,89.90
2023-06-10T13:17:45.388Z,90.50
2023-06-10T13:20:13.758Z,85.10
2023-06-10T13:22:43.360Z,79.90
2023-06-10T13:25:12.696Z,75.50
2023-06-10T13:27:41.155Z,65.20
2023-06-10T13:30:10.442Z,68.60
2023-06-10T13:32:38.794Z,65.10
2023-06-10T13:35:08.682Z,66.60
2023-06-10T13:37:38.092Z,64.20
2023-06-10T13:40:10.876Z,62.40
2023-06-10T13:42:39.220Z,65.20
2023-06-10T13:45:09.202Z,63.30
2023-06-10T13:47:37.524Z,63.50
2023-06-10T13:50:06.292Z,59.20
2023-06-10T13:52:34.428Z,57.30
2023-06-10T13:55:02.620Z,53.60
2023-06-10T13:57:32.099Z,53.30
2023-06-10T14:00:00.950Z,49.30
2023-06-10T14:02:29.171Z,49.70
2023-06-10T14:04:57.329Z,50.00
2023-06-10T14:07:27.204Z,49.60
2023-06-10T14:09:55.343Z,46.10
2023-06-10T14:12:23.679Z,46.50
2023-06-10T14:14:53.178Z,42.80
2023-06-10T14:17:21.333Z,45.60
2023-06-10T14:19:49.484Z,41.80
2023-06-10T14:22:17.610Z,44.70
2023-06-10T14:24:45.824Z,46.30
2023-06-10T14:27:13.948Z,43.90
2023-06-10T14:29:42.514Z,46.40
2023-06-10T14:32:12.134Z,33.10
2023-06-10T14:34:40.534Z,33.50
2023-06-10T14:37:09.410Z,67.80
2023-06-10T14:39:37.776Z,59.30
2023-06-10T14:42:06.898Z,85.30
2023-06-10T14:44:35.123Z,99.90
2023-06-10T14:47:03.899Z,99.90
2023-06-10T14:49:33.468Z,99.90
2023-06-10T14:52:01.604Z,99.90
2023-06-10T14:54:29.784Z,99.90
2023-06-10T14:56:57.910Z,99.90
2023-06-10T14:59:26.073Z,99.90
2023-06-10T15:01:54.455Z,99.90
2023-06-10T15:04:24.541Z,99.90
2023-06-10T15:06:54.560Z,99.90
2023-06-10T15:09:22.755Z,99.90
2023-06-10T15:11:50.893Z,99.90
2023-06-10T15:14:19.097Z,99.90
2023-06-10T15:16:47.317Z,99.90
2023-06-10T15:19:15.554Z,99.90
2023-06-10T15:21:43.733Z,99.90
2023-06-10T15:24:13.373Z,99.90
2023-06-10T15:26:42.039Z,99.90
2023-06-10T15:29:10.574Z,1.00
2023-06-10T15:31:38.781Z,99.90
2023-06-10T15:34:08.129Z,1.00
2023-06-10T15:36:37.526Z,1.00
2023-06-10T15:39:07.804Z,99.90
2023-06-10T15:41:37.512Z,1.00
2023-06-10T15:44:06.147Z,1.00
2023-06-10T15:46:35.605Z,1.00
2023-06-10T15:49:03.939Z,1.00
2023-06-10T15:51:32.346Z,1.00
2023-06-10T15:54:00.484Z,1.00
2023-06-10T15:56:28.636Z,99.90
2023-06-10T15:58:58.240Z,1.00
2023-06-10T16:01:26.461Z,1.00
2023-06-10T16:03:54.803Z,1.00
2023-06-10T16:06:23.037Z,1.00
2023-06-10T16:08:51.826Z,1.00
2023-06-10T16:11:19.960Z,1.00
2023-06-10T16:13:48.109Z,1.00
2023-06-10T16:16:17.680Z,1.00
2023-06-10T16:18:46.241Z,1.00
2023-06-10T16:21:14.426Z,1.00
2023-06-10T16:23:42.559Z,1.00
2023-06-10T16:26:10.845Z,1.00
2023-06-10T16:28:39.113Z,1.00
2023-06-10T16:31:07.367Z,1.00
2023-06-10T16:33:37.495Z,1.00
2023-06-10T16:36:05.832Z,99.90
2023-06-10T16:38:33.970Z,1.00
2023-06-10T16:41:02.299Z,1.00
2023-06-10T16:43:30.597Z,1.00
2023-06-10T16:45:58.819Z,1.00
2023-06-10T16:48:26.961Z,1.00
2023-06-10T16:50:56.620Z,1.00
2023-06-10T16:53:24.774Z,1.00
2023-06-10T16:55:52.933Z,1.00
2023-06-10T16:58:21.137Z,1.00
2023-06-10T17:00:50.636Z,1.00
2023-06-10T17:03:18.847Z,1.00
2023-06-10T17:05:47.051Z,99.90
2023-06-10T17:08:16.602Z,99.90
2023-06-10T17:10:45.191Z,1.00
2023-06-10T17:13:13.316Z,1.00
2023-06-10T17:15:41.976Z,1.00
2023-06-10T17:18:10.488Z,1.00
2023-06-10T17:20:38.685Z,1.00
2023-06-10T17:23:08.828Z,1.00
2023-06-10T17:25:38.473Z,1.00
2023-06-10T17:28:06.720Z,99.90
2023-06-10T17:30:34.889Z,99.90
2023-06-10T17:33:03.117Z,99.90
2023-06-10T17:35:31.279Z,99.90
2023-06-10T17:37:59.433Z,99.90
2023-06-10T17:40:27.568Z,99.90
2023-06-10T17:42:57.179Z,99.90
2023-06-10T17:45:25.317Z,99.90
2023-06-10T17:47:53.438Z,99.90
2023-06-10T17:50:21.650Z,99.90
2023-06-10T17:52:49.780Z,99.90
2023-06-10T17:55:18.126Z,99.90
2023-06-10T17:57:46.453Z,99.90
2023-06-10T18:00:16.772Z,99.90
2023-06-10T18:02:45.018Z,99.90
2023-06-10T18:05:13.392Z,99.90
2023-06-10T18:07:43.102Z,99.90
2023-06-10T18:10:11.755Z,99.90
2023-06-10T18:12:39.953Z,99.90
2023-06-10T18:15:09.392Z,99.90
2023-06-10T18:17:39.181Z,99.90
2023-06-10T18:20:08.579Z,99.90
2023-06-10T18:22:36.791Z,99.90
2023-06-10T18:25:06.289Z,99.90
2023-06-10T18:27:34.698Z,99.90
2023-06-10T18:30:02.844Z,99.90
2023-06-10T18:32:31.818Z,99.90
2023-06-10T18:35:01.487Z,99.90
2023-06-10T18:37:29.637Z,99.90
2023-06-10T18:39:57.800Z,99.90
2023-06-10T18:42:26.095Z,99.90
2023-06-10T18:44:54.244Z,99.90
2023-06-10T18:47:22.503Z,99.90
2023-06-10T18:49:50.696Z,99.90
2023-06-10T18:52:20.192Z,99.90
2023-06-10T18:54:48.410Z,99.90
2023-06-10T18:57:16.566Z,99.90
2023-06-10T18:59:45.053Z,99.90
2023-06-10T19:02:13.264Z,99.90
2023-06-10T19:04:41.518Z,99.90
2023-06-10T19:07:09.672Z,99.90
2023-06-10T19:09:39.881Z,99.90
2023-06-10T19:12:09.452Z,99.90
2023-06-10T19:14:40.093Z,99.90
2023-06-10T19:17:09.764Z,99.90
2023-06-10T19:19:37.973Z,99.90
2023-06-10T19:22:06.859Z,99.90
2023-06-10T19:24:34.990Z,99.90
2023-06-10T19:27:04.707Z,99.90
2023-06-10T19:29:32.859Z,99.90
2023-06-10T19:32:01.196Z,99.90
2023-06-10T19:34:29.394Z,99.90
2023-06-10T19:36:57.552Z,99.90
2023-06-10T19:39:25.707Z,99.90
2023-06-10T19:41:53.863Z,99.90
2023-06-10T19:44:23.409Z,99.90
2023-06-10T19:46:51.605Z,99.90
2023-06-10T19:49:19.745Z,99.90
2023-06-10T19:51:50.214Z,99.90
2023-06-10T19:54:18.305Z,99.90
2023-06-10T19:56:46.436Z,99.90
2023-06-10T19:59:14.937Z,99.90
2023-06-10T20:01:44.556Z,99.90
2023-06-10T20:04:12.777Z,99.90
2023-06-10T20:06:42.161Z,99.90
2023-06-10T20:09:10.393Z,99.90
2023-06-10T20:11:38.565Z,99.90
2023-06-10T20:14:06.750Z,99.90
2023-06-10T20:16:34.965Z,99.90
2023-06-10T20:19:04.469Z,99.90
2023-06-10T20:21:32.579Z,99.90
2023-06-10T20:24:00.704Z,99.90
2023-06-10T20:26:28.942Z,99.90
2023-06-10T20:28:57.087Z,99.90
2023-06-10T20:31:27.356Z,99.90
2023-06-10T20:33:55.628Z,99.90
2023-06-10T20:36:25.107Z,99.90
2023-06-10T20:38:53.213Z,99.90
2023-06-10T20:41:22.743Z,99.90
2023-06-10T20:43:50.973Z,99.90
2023-06-10T20:46:19.213Z,99.90
2023-06-10T20:48:47.457Z,99.90
2023-06-10T20:51:15.698Z,99.90
2023-06-10T20:53:45.221Z,99.90
2023-06-10T20:56:13.419Z,99.90
2023-06-10T20:58:41.799Z,99.90
2023-06-10T21:01:10.074Z,99.90
2023-06-10T21:03:38.226Z,99.90
2023-06-10T21:06:07.100Z,99.90
2023-06-10T21:08:35.243Z,99.90
2023-06-10T21:11:04.747Z,99.90
2023-06-10T21:13:32.880Z,99.90
2023-06-10T21:16:01.166Z,99.90
2023-06-10T21:18:31.610Z,99.90
2023-06-10T21:20:59.799Z,99.90
2023-06-10T21:23:28.025Z,99.90
2023-06-10T21:25:56.179Z,99.90
2023-06-10T21:28:25.715Z,99.90
2023-06-10T21:30:53.844Z,99.90
2023-06-10T21:33:23.955Z,99.90
2023-06-10T21:35:52.155Z,99.90
2023-06-10T21:38:20.308Z,99.90
2023-06-10T21:40:48.447Z,99.90
2023-06-10T21:43:16.573Z,99.90
2023-06-10T21:45:46.144Z,99.90
2023-06-10T21:48:14.454Z,99.90
2023-06-10T21:50:42.589Z,99.90
2023-06-10T21:53:10.762Z,99.90
2023-06-10T21:55:38.868Z,99.90
2023-06-10T21:58:06.968Z,99.90
2023-06-10T22:00:35.707Z,99.90
2023-06-10T22:03:05.444Z,99.90
2023-06-10T22:05:34.135Z,99.90
2023-06-10T22:08:02.350Z,99.90
2023-06-10T22:10:30.446Z,99.90
2023-06-10T22:12:58.613Z,99.90
2023-06-10T22:15:26.933Z,99.90
2023-06-10T22:17:55.112Z,99.90
2023-06-10T22:20:24.654Z,99.90
2023-06-10T22:22:52.911Z,99.90
2023-06-10T22:25:21.056Z,99.90
2023-06-10T22:27:49.249Z,99.90
2023-06-10T22:30:17.490Z,99.90
2023-06-10T22:32:45.721Z,99.90
2023-06-10T22:35:14.119Z,99.90
2023-06-10T22:37:43.772Z,99.90
2023-06-10T22:40:12.510Z,99.90
2023-06-10T22:42:40.613Z,99.90
2023-06-10T22:45:09.464Z,99.90
2023-06-10T22:47:37.965Z,99.90
2023-06-10T22:50:06.915Z,99.90
2023-06-10T22:52:35.050Z,99.90
2023-06-10T22:55:05.708Z,99.90
2023-06-10T22:57:33.856Z,99.90
2023-06-10T23:00:01.988Z,99.90
2023-06-10T23:02:30.190Z,99.90
2023-06-10T23:04:58.416Z,99.90
2023-06-10T23:07:26.525Z,99.90
2023-06-10T23:09:54.648Z,99.90
2023-06-10T23:12:24.327Z,99.90
2023-06-10T23:14:52.474Z,99.90
2023-06-10T23:17:21.897Z,99.90
2023-06-10T23:19:51.453Z,99.90
2023-06-10T23:22:20.084Z,99.90
2023-06-10T23:24:48.734Z,99.90
2023-06-10T23:27:21.293Z,99.90
2023-06-10T23:29:59.337Z,99.90
2023-06-10T23:32:28.542Z,99.90
2023-06-10T23:34:56.997Z,99.90
2023-06-10T23:37:25.111Z,99.90
2023-06-10T23:39:55.089Z,99.90
2023-06-10T23:42:25.599Z,99.90
2023-06-10T23:44:55.200Z,99.90
2023-06-10T23:47:23.363Z,99.90
2023-06-10T23:49:51.504Z,99.90
2023-06-10T23:52:21.743Z,99.90
2023-06-10T23:54:50.060Z,99.90
2023-06-10T23:57:18.160Z,99.90
2023-06-10T23:59:46.277Z,99.90
